createdAt,value
2022-10-17T07:24:03.260Z,97298.25
2022-10-17T07:25:05.120Z,97271.66
2022-10-17T07:26:10.007Z,97293.31
2022-10-17T07:27:12.452Z,97282.75
2022-10-17T07:28:17.049Z,97297.78
2022-10-17T07:29:18.722Z,97290.16
2022-10-17T07:30:20.734Z,97281.00
2022-10-17T07:31:22.935Z,97288.50
2022-10-17T07:38:32.699Z,97291.81
2022-10-17T07:39:35.598Z,97289.91
2022-10-17T07:40:36.975Z,97296.91
2022-10-17T07:41:38.426Z,97300.81
2022-10-17T07:54:06.361Z,97295.50
2022-10-17T07:55:08.467Z,97301.06
2022-10-17T07:56:10.674Z,97307.28
2022-10-17T07:57:12.066Z,97303.63
2022-10-17T07:58:13.983Z,97311.63
2022-10-17T07:59:15.663Z,97307.78
2022-10-17T08:00:17.078Z,97302.34
2022-10-17T08:01:19.054Z,97304.91
2022-10-17T08:02:25.660Z,97308.94
2022-10-17T08:03:27.023Z,97310.00
2022-10-17T08:04:32.621Z,97314.53
2022-10-17T08:05:34.319Z,97310.78
2022-10-17T08:12:03.657Z,97307.19
2022-10-17T08:13:05.156Z,97285.41
2022-10-17T08:14:06.621Z,97305.03
2022-10-17T08:15:09.258Z,97301.28
2022-10-17T08:16:12.490Z,97306.97
2022-10-17T08:17:14.081Z,97297.81
2022-10-17T08:18:17.649Z,97303.72
2022-10-17T08:19:18.999Z,97308.44
2022-10-17T08:20:20.464Z,97302.09
2022-10-17T08:21:22.159Z,97298.00
2022-10-17T08:22:23.580Z,97306.53
2022-10-17T08:23:25.006Z,97299.06
2022-10-17T08:24:26.394Z,97301.66
2022-10-17T08:25:27.778Z,97313.22
2022-10-17T08:26:30.645Z,97320.13
2022-10-17T08:27:35.569Z,97316.94
2022-10-17T08:28:38.703Z,97319.09
2022-10-17T08:29:40.950Z,97316.91
2022-10-17T08:30:42.289Z,97320.72
2022-10-17T08:31:48.321Z,97313.25
2022-10-17T08:32:51.600Z,97325.19
2022-10-17T08:33:53.054Z,97327.41
2022-10-17T08:34:55.501Z,97328.28
2022-10-17T08:35:59.157Z,97327.34
2022-10-17T08:42:05.454Z,97326.00
2022-10-17T08:43:14.461Z,97329.94
2022-10-17T08:44:43.103Z,97321.72
2022-10-17T08:45:47.371Z,97330.28
2022-10-17T08:46:53.708Z,97311.84
2022-10-17T08:48:03.076Z,97315.22
2022-10-17T08:49:12.222Z,97330.88
2022-10-17T08:50:44.843Z,97324.50
2022-10-17T08:52:02.740Z,97323.31
2022-10-17T08:53:25.825Z,97319.25
2022-10-17T08:54:41.030Z,97319.16
2022-10-17T08:55:50.692Z,97319.16
2022-10-17T08:56:54.098Z,97290.00
2022-10-17T08:57:55.520Z,97319.72
2022-10-17T08:59:00.935Z,97320.25
2022-10-17T09:00:02.703Z,97329.41
2022-10-17T09:06:11.979Z,97326.56
2022-10-17T09:07:23.840Z,97324.09
2022-10-17T09:09:06.721Z,97326.56
2022-10-17T09:10:33.347Z,97324.81
2022-10-17T09:11:49.837Z,97323.53
2022-10-17T09:13:26.812Z,97322.56
2022-10-17T09:14:38.238Z,97331.00
2022-10-17T09:15:53.344Z,97329.97
2022-10-17T09:17:32.480Z,97328.38
2022-10-17T09:18:38.896Z,97330.56
2022-10-17T09:19:46.297Z,97317.81
2022-10-17T09:20:56.055Z,97309.13
2022-10-17T09:22:09.564Z,97318.47
2022-10-17T09:23:16.450Z,97328.53
2022-10-17T09:24:42.957Z,97325.72
2022-10-17T09:25:55.631Z,97313.16
2022-10-17T09:26:57.005Z,97323.38
2022-10-17T09:28:14.273Z,97317.72
2022-10-17T09:29:21.603Z,97312.75
2022-10-17T09:48:53.323Z,97329.53
2022-10-17T09:49:55.289Z,97321.84
2022-10-17T09:51:08.234Z,97313.97
2022-10-17T09:52:34.162Z,97322.34
2022-10-17T09:53:42.232Z,97307.63
2022-10-17T10:06:15.449Z,97335.88
2022-10-17T10:07:18.095Z,97335.91
2022-10-17T10:08:19.960Z,97339.91
2022-10-17T10:09:30.097Z,97334.63
2022-10-17T10:10:32.689Z,97332.84
2022-10-17T10:11:52.454Z,97329.50
2022-10-17T10:13:17.504Z,97330.41
2022-10-17T10:14:39.548Z,97337.44
2022-10-17T10:15:44.631Z,97334.75
2022-10-17T10:16:47.271Z,97329.56
2022-10-17T10:17:48.897Z,97332.69
2022-10-17T10:18:51.855Z,97332.63
2022-10-17T10:19:54.154Z,97328.38
2022-10-17T10:21:06.445Z,97343.91
2022-10-17T10:22:26.137Z,97331.44
2022-10-17T10:23:27.844Z,97337.78
2022-10-17T10:24:31.209Z,97344.28
2022-10-17T10:25:33.536Z,97326.81
2022-10-17T10:26:47.212Z,97339.47
2022-10-17T10:27:48.667Z,97347.44
2022-10-17T10:28:58.158Z,97345.97
2022-10-17T10:29:59.576Z,97341.75
2022-10-17T10:42:27.767Z,97340.91
2022-10-17T10:43:34.100Z,97335.97
2022-10-17T10:44:38.165Z,97341.94
2022-10-17T10:45:48.055Z,97344.19
2022-10-17T10:47:16.977Z,97330.91
2022-10-17T10:48:22.532Z,97340.25
2022-10-17T10:49:32.212Z,97343.72
2022-10-17T10:50:47.324Z,97341.38
2022-10-17T10:51:49.848Z,97341.88
2022-10-17T10:53:30.759Z,97341.47
2022-10-17T11:00:02.703Z,97338.44
2022-10-17T11:01:16.475Z,97335.00
2022-10-17T11:02:32.715Z,97337.28
2022-10-17T11:03:42.724Z,97339.59
2022-10-17T11:05:00.407Z,97337.34
2022-10-17T11:12:50.306Z,97336.00
2022-10-17T11:14:03.597Z,97332.25
2022-10-17T11:15:23.257Z,97335.41
2022-10-17T11:16:40.229Z,97336.66
2022-10-17T11:48:10.305Z,97335.22
2022-10-17T11:49:20.083Z,97341.63
2022-10-17T11:52:44.335Z,97334.25
2022-10-17T11:53:55.981Z,97336.72
2022-10-17T11:55:11.196Z,97334.94
2022-10-17T11:56:14.976Z,97334.03
2022-10-17T11:57:37.293Z,97331.53
2022-10-17T11:58:46.372Z,97336.47
2022-10-17T12:00:18.718Z,97336.44
2022-10-17T12:01:54.974Z,97335.28
2022-10-17T12:03:33.872Z,97335.28
2022-10-17T12:05:07.835Z,97327.31
2022-10-17T12:06:12.253Z,97339.97
2022-10-17T12:07:48.641Z,97331.47
2022-10-17T12:09:01.506Z,97338.25
2022-10-17T12:10:30.113Z,97342.06
2022-10-17T12:12:02.449Z,97342.00
2022-10-17T12:13:28.826Z,97338.94
2022-10-17T12:14:36.356Z,97339.59
2022-10-17T12:15:37.757Z,97331.16
2022-10-17T12:16:44.066Z,97333.03
2022-10-17T12:17:58.265Z,97335.34
2022-10-17T12:19:02.503Z,97337.94
2022-10-17T12:20:25.209Z,97336.28
2022-10-17T12:21:31.294Z,97329.78
2022-10-17T12:22:33.824Z,97326.78
2022-10-17T12:23:41.936Z,97334.28
2022-10-17T12:24:45.667Z,97345.63
2022-10-17T12:25:53.721Z,97342.53
2022-10-17T12:26:57.109Z,97338.19
2022-10-17T12:28:37.278Z,97334.97
2022-10-17T12:29:42.775Z,97326.69
2022-10-17T12:36:02.627Z,97339.56
2022-10-17T12:37:04.803Z,97320.81
2022-10-17T12:38:18.383Z,97337.53
2022-10-17T12:39:45.303Z,97344.94
2022-10-17T12:40:49.997Z,97343.88
2022-10-17T12:41:51.340Z,97339.16
2022-10-17T12:54:15.940Z,97340.94
2022-10-17T12:55:19.104Z,97339.84
2022-10-17T12:56:30.333Z,97339.19
2022-10-17T12:57:48.504Z,97338.53
2022-10-17T12:58:51.854Z,97334.72
2022-10-17T12:59:56.680Z,97331.28
2022-10-17T13:01:23.263Z,97335.56
2022-10-17T13:02:27.068Z,97337.97
2022-10-17T13:03:32.638Z,97351.34
2022-10-17T13:04:36.787Z,97326.50
2022-10-17T13:05:42.213Z,97339.63
2022-10-17T13:12:06.264Z,97347.78
2022-10-17T13:13:18.608Z,97347.84
2022-10-17T13:14:23.045Z,97333.94
2022-10-17T13:15:28.843Z,97337.97
2022-10-17T13:16:35.991Z,97357.25
2022-10-17T13:17:40.699Z,97349.47
2022-10-17T13:18:53.223Z,97343.84
2022-10-17T13:19:55.521Z,97354.44
2022-10-17T13:21:03.363Z,97352.09
2022-10-17T13:22:15.319Z,97352.28
2022-10-17T13:23:24.544Z,97354.91
2022-10-17T13:24:34.833Z,97351.44
2022-10-17T13:25:38.912Z,97357.06
2022-10-17T13:26:46.002Z,97352.09
2022-10-17T13:27:49.214Z,97356.94
2022-10-17T13:29:02.770Z,97357.06
2022-10-17T13:30:32.158Z,97347.00
2022-10-17T13:31:37.357Z,97361.19
2022-10-17T13:32:39.701Z,97360.31
2022-10-17T13:33:42.211Z,97346.75
2022-10-17T13:34:43.698Z,97347.00
2022-10-17T13:47:06.553Z,97367.19
2022-10-17T13:48:22.985Z,97362.03
2022-10-17T13:49:34.516Z,97359.00
2022-10-17T13:50:45.239Z,97349.38
2022-10-17T13:51:49.831Z,97365.19
2022-10-17T13:53:17.498Z,97371.72
2022-10-17T13:54:40.542Z,97369.50
2022-10-17T13:56:27.930Z,97375.50
2022-10-17T13:57:31.922Z,97356.72
2022-10-17T13:58:41.170Z,97377.91
2022-10-17T13:59:44.229Z,97372.66
2022-10-17T14:00:49.106Z,97367.13
2022-10-17T14:01:52.113Z,97370.53
2022-10-17T14:02:53.562Z,97368.38
2022-10-17T14:04:07.752Z,97374.56
2022-10-17T14:05:20.396Z,97362.31
2022-10-17T14:06:30.859Z,97375.69
2022-10-17T14:08:09.175Z,97363.53
2022-10-17T14:09:05.234Z,97368.34
2022-10-17T14:10:22.459Z,97355.88
2022-10-17T14:11:37.427Z,97371.56
2022-10-17T14:12:42.755Z,97369.47
2022-10-17T14:13:49.336Z,97371.22
2022-10-17T14:15:10.731Z,97362.47
2022-10-17T14:16:15.844Z,97367.19
2022-10-17T14:23:22.894Z,97373.47
2022-10-17T14:24:29.994Z,97363.25
2022-10-17T14:25:36.964Z,97368.03
2022-10-17T14:26:50.837Z,97368.16
2022-10-17T14:28:03.962Z,97354.00
2022-10-17T14:29:21.666Z,97370.31
2022-10-17T14:30:51.595Z,97369.56
2022-10-17T14:31:50.539Z,97372.94
2022-10-17T14:33:01.620Z,97370.56
2022-10-17T14:34:04.533Z,97367.94
2022-10-17T14:35:30.305Z,97368.03
2022-10-17T14:36:40.111Z,97348.91
2022-10-17T14:37:45.355Z,97351.91
2022-10-17T14:38:52.070Z,97368.22
2022-10-17T14:39:58.797Z,97365.53
2022-10-17T14:42:27.532Z,97358.28
2022-10-17T14:43:31.164Z,97367.69
2022-10-17T14:44:35.363Z,97371.56
2022-10-17T14:45:39.624Z,97366.56
2022-10-17T14:46:48.429Z,97367.38
2022-10-17T14:47:53.919Z,97371.91
2022-10-17T14:49:02.133Z,97360.13
2022-10-17T14:50:20.218Z,97366.34
2022-10-17T14:51:22.036Z,97371.88
2022-10-17T14:52:28.920Z,97368.38
2022-10-17T14:53:30.856Z,97366.53
2022-10-17T14:54:35.561Z,97372.28
2022-10-17T14:55:53.926Z,97363.59
2022-10-17T14:56:55.919Z,97378.44
2022-10-17T14:57:57.868Z,97371.06
2022-10-17T14:58:59.302Z,97377.00
2022-10-17T15:00:00.883Z,97371.75
2022-10-17T15:01:02.359Z,97355.94
2022-10-17T15:02:03.683Z,97368.22
2022-10-17T15:03:05.120Z,97370.31
2022-10-17T15:04:10.662Z,97379.22
2022-10-17T15:05:13.671Z,97370.03
2022-10-17T15:06:31.166Z,97365.75
2022-10-17T15:07:32.532Z,97372.09
2022-10-17T15:08:33.938Z,97373.78
2022-10-17T15:09:35.309Z,97362.44
2022-10-17T15:10:37.586Z,97366.06
2022-10-17T15:17:02.562Z,97385.84
2022-10-17T15:18:04.289Z,97383.06
2022-10-17T15:19:05.681Z,97383.69
2022-10-17T15:20:14.767Z,97378.97
2022-10-17T15:21:26.509Z,97373.75
2022-10-17T15:22:38.874Z,97380.63
2022-10-17T15:23:42.534Z,97386.09
2022-10-17T15:24:46.372Z,97384.88
2022-10-17T15:25:47.767Z,97380.38
2022-10-17T15:26:49.481Z,97377.97
2022-10-17T15:27:51.369Z,97386.63
2022-10-17T15:34:04.621Z,97382.28
2022-10-17T15:35:06.675Z,97387.63
2022-10-17T15:36:40.172Z,97383.66
2022-10-17T15:37:43.069Z,97388.66
2022-10-17T15:38:48.014Z,97383.97
2022-10-17T15:39:54.835Z,97368.06
2022-10-17T15:40:56.397Z,97369.47
2022-10-17T15:41:58.881Z,97388.94
2022-10-17T15:43:00.256Z,97384.69
2022-10-17T15:44:05.209Z,97371.72
2022-10-17T15:46:17.530Z,97390.22
2022-10-17T15:47:28.238Z,97378.31
2022-10-17T15:48:31.645Z,97390.75
2022-10-17T15:49:34.613Z,97389.06
2022-10-17T15:50:35.981Z,97389.31
2022-10-17T15:51:37.489Z,97386.88
2022-10-17T15:52:38.829Z,97378.75
2022-10-17T15:53:40.801Z,97396.63
2022-10-17T15:54:42.225Z,97375.41
2022-10-17T15:55:43.722Z,97402.41
2022-10-17T15:56:52.877Z,97397.09
2022-10-17T15:57:54.292Z,97408.25
2022-10-17T15:59:00.649Z,97405.69
2022-10-17T16:00:02.080Z,97401.59
2022-10-17T16:01:05.086Z,97410.19
2022-10-17T16:02:14.395Z,97414.66
2022-10-17T16:03:15.858Z,97409.72
2022-10-17T16:04:21.596Z,97406.69
2022-10-17T16:05:29.058Z,97410.06
2022-10-17T16:06:30.398Z,97406.28
2022-10-17T16:07:31.968Z,97384.25
2022-10-17T16:08:33.522Z,97386.38
2022-10-17T16:09:37.346Z,97408.66
2022-10-17T16:10:40.363Z,97417.69
2022-10-17T16:11:43.828Z,97411.06
2022-10-17T16:12:45.749Z,97415.59
2022-10-17T16:13:52.679Z,97402.16
2022-10-17T16:14:54.053Z,97401.44
2022-10-17T16:15:58.613Z,97390.53
2022-10-17T16:17:00.260Z,97398.03
2022-10-17T16:18:04.407Z,97387.13
2022-10-17T16:19:08.993Z,97403.50
2022-10-17T16:20:12.272Z,97379.31
2022-10-17T16:21:15.667Z,97396.00
2022-10-17T16:22:27.362Z,97396.84
2022-10-17T16:23:28.921Z,97387.44
2022-10-17T16:24:30.289Z,97389.63
2022-10-17T16:25:32.523Z,97392.06
2022-10-17T16:26:33.856Z,97404.59
2022-10-17T16:27:38.236Z,97402.56
2022-10-17T16:40:04.441Z,97417.72
2022-10-17T16:41:19.001Z,97419.28
2022-10-17T16:42:20.993Z,97418.03
2022-10-17T16:43:22.353Z,97416.09
2022-10-17T16:44:23.762Z,97415.25
2022-10-17T16:45:25.170Z,97430.94
2022-10-17T16:46:28.317Z,97420.13
2022-10-17T16:47:29.735Z,97392.44
2022-10-17T16:48:31.147Z,97424.13
2022-10-17T16:49:40.320Z,97431.72
2022-10-17T16:50:44.582Z,97429.88
2022-10-17T16:51:45.955Z,97417.97
2022-10-17T16:52:47.512Z,97439.19
2022-10-17T16:53:50.819Z,97436.97
2022-10-17T16:54:56.072Z,97444.31
2022-10-17T16:56:04.925Z,97426.84
2022-10-17T16:57:06.416Z,97440.09
2022-10-17T16:58:08.068Z,97444.38
2022-10-17T16:59:11.530Z,97422.34
2022-10-17T17:00:15.210Z,97449.28
2022-10-17T17:01:20.035Z,97449.47
2022-10-17T17:02:21.634Z,97451.84
2022-10-17T17:03:23.225Z,97453.97
2022-10-17T17:04:24.702Z,97455.63
2022-10-17T17:05:26.141Z,97457.44
2022-10-17T17:06:29.082Z,97456.94
2022-10-17T17:07:30.959Z,97447.25
2022-10-17T17:08:33.853Z,97458.69
2022-10-17T17:09:35.193Z,97455.22
2022-10-17T17:10:36.517Z,97454.06
2022-10-17T17:11:38.648Z,97445.25
2022-10-17T17:12:40.011Z,97410.59
2022-10-17T17:13:41.912Z,97444.69
2022-10-17T17:14:43.285Z,97452.88
2022-10-17T17:16:51.951Z,97445.44
2022-10-17T17:17:55.609Z,97449.16
2022-10-17T17:19:10.126Z,97449.47
2022-10-17T17:20:11.468Z,97436.75
2022-10-17T17:21:13.384Z,97449.69
2022-10-17T17:22:14.790Z,97444.56
2022-10-17T17:23:16.405Z,97451.91
2022-10-17T17:24:21.054Z,97449.66
2022-10-17T17:25:22.709Z,97453.78
2022-10-17T17:26:25.631Z,97453.56
2022-10-17T17:27:28.825Z,97450.91
2022-10-17T17:28:31.961Z,97459.63
2022-10-17T17:29:37.751Z,97451.84
2022-10-17T17:30:39.088Z,97445.16
